Time;durP1;ratioP1;P1;durP2;ratioP2;P2;SDS_P1;SDS_P2;PMS_P1;PMS_P2;Temp;Humidity;BMP_temperature;BMP_pressure;BME280_temperature;BME280_humidity;BME280_pressure;Samples;Min_cycle;Max_cycle;Signal;HPM_P1;HPM_P2
2022/04/25 00:01:24;;;;;;;6.57;2.05;;;16.80;74.40;;;;;;5030082;28;20585;-75
2022/04/25 00:03:50;;;;;;;5.43;1.48;;;16.70;73.50;;;;;;5032313;28;20184;-75
2022/04/25 00:06:15;;;;;;;6.28;2.17;;;16.60;74.10;;;;;;5030049;28;20188;-75
2022/04/25 00:08:42;;;;;;;6.38;1.55;;;16.60;74.40;;;;;;5026979;28;20715;-75
2022/04/25 00:11:07;;;;;;;10.85;2.03;;;16.50;74.70;;;;;;5026744;28;20203;-74
2022/04/25 00:13:33;;;;;;;2.42;2.20;;;16.50;75.30;;;;;;5029622;28;20184;-74
2022/04/25 00:16:00;;;;;;;2.50;1.98;;;16.50;75.30;;;;;;5027356;28;20774;-74
2022/04/25 00:18:26;;;;;;;6.47;2.50;;;16.50;75.60;;;;;;5032939;28;20204;-74
2022/04/25 00:20:52;;;;;;;8.95;2.92;;;16.40;75.80;;;;;;5030607;28;20267;-74
2022/04/25 00:23:20;;;;;;;5.70;3.53;;;16.40;75.70;;;;;;5029759;28;20179;-74
2022/04/25 00:25:45;;;;;;;2.45;2.33;;;16.40;76.40;;;;;;5031508;28;20184;-74
2022/04/25 00:28:11;;;;;;;4.07;2.50;;;16.30;76.10;;;;;;5032525;28;20640;-74
2022/04/25 00:30:37;;;;;;;4.15;2.53;;;16.30;76.30;;;;;;5033706;28;20190;-74
2022/04/25 00:33:02;;;;;;;3.83;2.45;;;16.20;76.40;;;;;;5034047;28;20257;-74
2022/04/25 00:35:28;;;;;;;6.45;2.13;;;16.20;76.80;;;;;;5033519;28;20297;-74
2022/04/25 00:37:55;;;;;;;2.47;2.28;;;16.10;77.10;;;;;;5028011;28;20260;-74
2022/04/25 00:40:22;;;;;;;4.50;2.75;;;16.00;76.80;;;;;;5029957;28;20180;-74
2022/04/25 00:42:49;;;;;;;5.25;1.98;;;16.00;76.50;;;;;;5029755;28;20183;-74
2022/04/25 00:45:16;;;;;;;8.80;2.20;;;15.90;77.10;;;;;;5025825;28;20186;-74
2022/04/25 00:47:42;;;;;;;5.50;2.25;;;15.80;76.90;;;;;;5028233;28;20184;-74
2022/04/25 00:50:10;;;;;;;4.50;2.05;;;15.70;76.60;;;;;;5028272;28;20176;-74
2022/04/25 00:52:37;;;;;;;14.55;2.17;;;15.70;76.50;;;;;;5033125;28;20286;-74
2022/04/25 00:55:07;;;;;;;2.65;1.92;;;15.60;76.60;;;;;;5029530;28;20907;-74
2022/04/25 00:57:33;;;;;;;6.13;2.30;;;15.60;76.30;;;;;;5028198;28;20872;-74
2022/04/25 00:59:59;;;;;;;9.27;2.13;;;15.60;76.90;;;;;;5027555;28;20184;-73
2022/04/25 01:02:26;;;;;;;2.95;2.03;;;15.60;77.60;;;;;;5028548;28;20694;-74
2022/04/25 01:04:55;;;;;;;7.35;2.05;;;15.60;76.80;;;;;;5027925;28;20375;-74
2022/04/25 01:07:22;;;;;;;2.50;1.90;;;15.50;76.30;;;;;;5030152;28;20196;-74
2022/04/25 01:09:48;;;;;;;4.88;1.88;;;15.40;76.80;;;;;;5034495;28;20187;-74
2022/04/25 01:12:13;;;;;;;7.65;2.40;;;15.50;76.50;;;;;;5032421;28;20653;-75
2022/04/25 01:14:39;;;;;;;4.05;1.90;;;15.50;77.80;;;;;;5025818;28;20196;-75
2022/04/25 01:17:07;;;;;;;4.35;2.10;;;15.40;76.70;;;;;;5035224;28;20301;-74
2022/04/25 01:19:34;;;;;;;6.93;2.70;;;15.40;77.00;;;;;;5031599;28;20666;-74
2022/04/25 01:22:09;;;;;;;2.47;2.33;;;15.40;79.20;;;;;;5031374;28;20179;-74
2022/04/25 01:27:29;;;;;;;3.40;1.95;;;15.30;78.80;;;;;;5013502;28;20604;-75
2022/04/25 01:29:55;;;;;;;2.25;1.80;;;15.30;78.10;;;;;;5007067;28;20181;-75
2022/04/25 01:32:23;;;;;;;2.88;2.20;;;15.20;78.90;;;;;;5004592;28;20201;-75
2022/04/25 01:34:49;;;;;;;4.38;1.80;;;15.20;79.30;;;;;;4989091;28;20181;-74
2022/04/25 01:37:17;;;;;;;8.73;2.10;;;15.20;79.40;;;;;;5007533;28;20204;-74
2022/04/25 01:39:52;;;;;;;4.88;1.80;;;15.10;77.40;;;;;;5007950;28;20227;-74
2022/04/25 01:42:20;;;;;;;6.40;2.47;;;15.10;79.90;;;;;;4994711;28;20251;-75
2022/04/25 01:44:46;;;;;;;4.57;2.30;;;15.00;77.80;;;;;;5010526;28;20192;-74
2022/04/25 01:47:12;;;;;;;9.05;2.08;;;15.00;77.60;;;;;;5009243;28;20295;-74
2022/04/25 01:49:39;;;;;;;6.13;2.08;;;15.00;80.00;;;;;;5006573;28;20721;-74
2022/04/25 01:52:13;;;;;;;5.22;2.22;;;15.00;79.30;;;;;;5004386;28;20201;-74
2022/04/25 01:54:39;;;;;;;2.03;1.83;;;15.00;79.80;;;;;;5005908;28;20223;-74
2022/04/25 01:57:04;;;;;;;3.95;1.98;;;14.90;79.20;;;;;;4992607;28;20635;-74
2022/04/25 01:59:33;;;;;;;4.32;2.22;;;15.00;80.60;;;;;;5008001;28;20185;-74
2022/04/25 02:02:01;;;;;;;4.18;2.22;;;15.00;80.40;;;;;;5006816;28;20218;-74
2022/04/25 02:04:28;;;;;;;3.58;2.33;;;15.00;79.80;;;;;;5025608;28;20620;-74
2022/04/25 02:06:54;;;;;;;2.83;2.13;;;15.00;80.40;;;;;;5033046;28;20849;-74
2022/04/25 02:09:20;;;;;;;2.33;1.85;;;14.90;80.00;;;;;;5059529;28;20276;-74
2022/04/25 02:11:47;;;;;;;2.70;2.22;;;14.90;79.80;;;;;;5032827;28;20665;-75
2022/04/25 02:14:13;;;;;;;3.50;2.60;;;14.90;81.00;;;;;;5025345;28;20192;-74
2022/04/25 02:16:39;;;;;;;5.00;2.10;;;14.80;80.60;;;;;;5028781;28;20216;-75
2022/04/25 02:19:04;;;;;;;3.35;2.17;;;14.80;80.10;;;;;;5032034;28;20183;-75
2022/04/25 02:21:30;;;;;;;5.22;2.25;;;14.70;80.10;;;;;;5031270;28;20177;-75
2022/04/25 02:23:56;;;;;;;2.25;1.70;;;14.70;80.90;;;;;;5031149;28;20180;-75
2022/04/25 02:26:22;;;;;;;2.45;2.28;;;14.70;79.60;;;;;;5026067;28;20273;-74
2022/04/25 02:28:48;;;;;;;4.63;1.98;;;14.60;80.30;;;;;;5031366;28;20183;-74
2022/04/25 02:31:14;;;;;;;5.60;2.25;;;14.60;78.80;;;;;;5028756;28;20733;-73
2022/04/25 02:33:41;;;;;;;3.53;2.13;;;14.60;82.10;;;;;;5031773;28;20611;-74
2022/04/25 02:36:08;;;;;;;1.90;1.80;;;14.60;82.10;;;;;;5027832;28;20220;-74
2022/04/25 02:38:35;;;;;;;3.75;2.08;;;14.50;81.40;;;;;;5032459;28;20188;-74
2022/04/25 02:41:09;;;;;;;5.05;2.42;;;14.50;82.60;;;;;;5035292;28;20267;-74
2022/04/25 02:43:43;;;;;;;5.65;1.75;;;14.40;83.20;;;;;;5036553;28;20184;-74
2022/04/25 02:46:14;;;;;;;4.90;1.58;;;14.30;82.50;;;;;;5030809;28;20231;-74
2022/04/25 02:48:42;;;;;;;2.05;1.65;;;14.30;83.20;;;;;;5035025;28;20192;-74
2022/04/25 02:51:09;;;;;;;3.97;1.90;;;14.30;82.20;;;;;;5036007;28;20175;-74
2022/04/25 02:53:35;;;;;;;5.78;2.40;;;14.30;81.90;;;;;;5035370;28;20211;-74
2022/04/25 02:56:03;;;;;;;7.32;2.28;;;14.30;82.30;;;;;;5034850;28;20882;-74
2022/04/25 02:58:30;;;;;;;4.13;2.35;;;14.20;82.50;;;;;;5028704;28;20181;-74
2022/04/25 03:00:57;;;;;;;2.90;1.90;;;14.20;82.60;;;;;;5030111;28;20191;-75
2022/04/25 03:03:24;;;;;;;5.95;2.63;;;14.20;82.60;;;;;;5038723;28;20180;-75
2022/04/25 03:05:51;;;;;;;3.35;2.45;;;14.20;82.60;;;;;;5032467;28;20180;-74
2022/04/25 03:08:22;;;;;;;2.30;2.15;;;14.10;82.30;;;;;;5032072;28;20274;-74
2022/04/25 03:10:49;;;;;;;6.07;2.50;;;14.10;82.50;;;;;;5030353;28;20321;-74
2022/04/25 03:13:15;;;;;;;1.92;1.83;;;14.10;82.70;;;;;;5034564;28;20192;-74
2022/04/25 03:15:42;;;;;;;6.05;1.95;;;14.10;82.90;;;;;;5033032;28;20749;-74
2022/04/25 03:18:10;;;;;;;4.72;1.80;;;14.10;83.10;;;;;;5035442;28;20194;-75
2022/04/25 03:20:36;;;;;;;6.00;1.77;;;14.00;82.30;;;;;;5035426;28;20196;-75
2022/04/25 03:23:02;;;;;;;4.13;1.75;;;14.00;81.60;;;;;;5035087;28;20559;-75
2022/04/25 03:25:28;;;;;;;2.38;1.85;;;14.00;81.20;;;;;;5034901;28;20271;-75
2022/04/25 03:27:56;;;;;;;4.85;2.33;;;13.90;80.80;;;;;;5034916;28;20191;-74
2022/04/25 03:30:21;;;;;;;6.70;2.05;;;13.90;80.10;;;;;;5031208;28;20176;-74
2022/04/25 03:32:47;;;;;;;2.20;2.10;;;13.90;81.20;;;;;;5034908;28;20175;-74
2022/04/25 03:35:14;;;;;;;2.25;2.15;;;13.90;82.20;;;;;;5033391;28;20298;-74
2022/04/25 03:37:41;;;;;;;3.35;1.92;;;13.90;80.40;;;;;;5034000;28;20177;-74
2022/04/25 03:40:09;;;;;;;2.22;1.88;;;13.90;84.40;;;;;;5037550;28;20173;-74
2022/04/25 03:42:37;;;;;;;3.13;2.25;;;13.90;84.50;;;;;;5036421;28;20216;-75
2022/04/25 03:45:10;;;;;;;3.13;1.98;;;13.80;83.50;;;;;;5031499;28;20188;-74
2022/04/25 03:47:36;;;;;;;5.53;2.50;;;13.80;84.20;;;;;;5033663;28;20249;-74
2022/04/25 03:50:07;;;;;;;6.35;3.13;;;13.80;83.90;;;;;;5028225;28;20183;-75
2022/04/25 03:52:36;;;;;;;6.53;1.67;;;13.70;83.10;;;;;;5029733;28;20709;-73
2022/04/25 03:57:59;;;;;;;8.50;2.15;;;13.70;83.80;;;;;;5021738;28;20191;-75
2022/04/25 04:00:25;;;;;;;2.63;2.13;;;13.70;84.40;;;;;;5019474;28;20267;-74
2022/04/25 04:02:51;;;;;;;4.05;2.58;;;13.70;84.90;;;;;;5021683;28;20200;-74
2022/04/25 04:05:18;;;;;;;1.58;1.58;;;13.60;84.60;;;;;;5019564;28;20196;-75
2022/04/25 04:07:44;;;;;;;2.15;1.83;;;13.60;84.70;;;;;;5021635;28;20188;-73
2022/04/25 04:10:10;;;;;;;2.05;1.85;;;13.50;84.10;;;;;;5019982;28;20226;-74
2022/04/25 04:12:36;;;;;;;4.68;1.77;;;13.60;84.60;;;;;;5022636;28;20274;-74
2022/04/25 04:15:05;;;;;;;2.05;1.92;;;13.60;84.20;;;;;;5021494;28;20833;-74
2022/04/25 04:17:35;;;;;;;3.58;2.33;;;13.60;85.50;;;;;;5021569;28;20204;-74
2022/04/25 04:20:03;;;;;;;7.55;2.67;;;13.60;84.30;;;;;;5021392;28;20196;-73
2022/04/25 04:22:32;;;;;;;10.02;2.17;;;13.60;84.60;;;;;;5020206;28;20418;-73
2022/04/25 04:25:05;;;;;;;2.90;1.95;;;13.60;83.80;;;;;;5019784;28;20188;-73
2022/04/25 04:27:32;;;;;;;5.43;2.13;;;13.60;84.00;;;;;;5021055;28;20294;-74
2022/04/25 04:29:59;;;;;;;5.13;3.22;;;13.70;84.60;;;;;;5002484;28;21613;-74
2022/04/25 04:32:29;;;;;;;2.78;2.17;;;13.70;84.60;;;;;;5020870;28;20181;-74
2022/04/25 04:34:54;;;;;;;4.45;2.15;;;13.70;84.00;;;;;;5024985;28;20515;-74
2022/04/25 04:37:21;;;;;;;6.43;2.65;;;13.80;84.50;;;;;;5032666;28;20242;-74
2022/04/25 04:39:46;;;;;;;2.15;1.98;;;13.70;85.10;;;;;;5028540;28;20592;-74
2022/04/25 04:42:12;;;;;;;6.88;2.33;;;13.70;84.30;;;;;;5028097;28;20193;-74
2022/04/25 04:44:41;;;;;;;2.40;2.25;;;13.70;84.10;;;;;;5030490;28;20291;-75
2022/04/25 04:47:06;;;;;;;4.88;1.80;;;13.70;84.10;;;;;;5029462;28;20907;-75
2022/04/25 04:49:32;;;;;;;3.00;2.22;;;13.80;84.00;;;;;;5031071;28;20231;-73
2022/04/25 04:51:58;;;;;;;2.10;1.95;;;13.60;84.40;;;;;;5023734;28;20967;-75
2022/04/25 04:54:24;;;;;;;3.70;2.30;;;13.60;84.40;;;;;;5030393;28;21022;-74
2022/04/25 04:56:49;;;;;;;4.68;1.92;;;13.80;83.90;;;;;;5027543;28;20226;-75
2022/04/25 04:59:15;;;;;;;2.08;1.92;;;13.80;83.90;;;;;;5034670;28;20180;-75
2022/04/25 05:01:42;;;;;;;9.00;1.95;;;13.80;84.00;;;;;;5031745;28;20258;-74
2022/04/25 05:04:08;;;;;;;2.70;2.30;;;13.90;83.70;;;;;;5035094;28;20514;-75
2022/04/25 05:06:36;;;;;;;3.00;2.08;;;14.00;83.70;;;;;;5031729;28;20215;-75
2022/04/25 05:09:01;;;;;;;6.38;2.22;;;14.10;83.30;;;;;;5029637;28;20203;-75
2022/04/25 05:11:29;;;;;;;4.80;2.05;;;14.20;83.50;;;;;;5031219;28;20188;-75
2022/04/25 05:13:55;;;;;;;5.65;2.22;;;14.30;82.90;;;;;;5033825;28;20914;-74
2022/04/25 05:16:21;;;;;;;6.32;2.20;;;14.30;82.50;;;;;;5030237;28;20289;-75
2022/04/25 05:18:47;;;;;;;3.63;2.08;;;14.40;83.00;;;;;;5032806;28;20192;-75
2022/04/25 05:21:13;;;;;;;5.13;1.85;;;14.40;82.40;;;;;;5031427;28;20242;-75
2022/04/25 05:23:41;;;;;;;5.80;2.50;;;14.50;82.10;;;;;;5027956;28;20746;-75
2022/04/25 05:26:08;;;;;;;6.78;2.33;;;14.50;81.90;;;;;;5028097;28;20249;-75
2022/04/25 05:28:33;;;;;;;5.50;2.63;;;14.50;81.90;;;;;;5027449;28;20172;-74
2022/04/25 05:30:59;;;;;;;14.68;2.60;;;14.60;81.90;;;;;;5029467;28;20184;-74
2022/04/25 05:33:25;;;;;;;3.88;2.63;;;14.70;81.60;;;;;;5030644;28;20176;-74
2022/04/25 05:35:54;;;;;;;8.60;1.98;;;14.70;81.60;;;;;;5027876;28;20218;-74
2022/04/25 05:38:19;;;;;;;9.18;2.60;;;14.70;81.40;;;;;;5031157;28;20261;-74
2022/04/25 05:40:49;;;;;;;10.65;2.55;;;14.80;81.40;;;;;;5028333;28;20184;-74
2022/04/25 05:43:15;;;;;;;2.70;2.38;;;14.80;80.90;;;;;;5031255;28;20180;-74
2022/04/25 05:45:44;;;;;;;12.38;2.42;;;14.90;80.90;;;;;;5034708;28;20190;-75
2022/04/25 05:53:38;;;;;;;2.15;1.95;;;15.10;80.60;;;;;;5034110;28;20296;-75
2022/04/25 05:56:04;;;;;;;4.55;1.92;;;15.10;80.40;;;;;;5028441;28;20668;-74
2022/04/25 05:58:30;;;;;;;3.80;2.00;;;15.20;80.40;;;;;;5032587;28;20274;-75
2022/04/25 06:00:55;;;;;;;2.92;1.95;;;15.30;80.60;;;;;;5029404;28;20219;-74
2022/04/25 06:03:21;;;;;;;5.82;1.60;;;15.30;80.20;;;;;;5033465;28;20187;-74
2022/04/25 06:05:47;;;;;;;5.97;2.05;;;15.40;79.90;;;;;;5033693;28;20673;-75
2022/04/25 06:08:13;;;;;;;8.00;2.45;;;15.50;79.40;;;;;;5028208;28;20198;-74
2022/04/25 06:10:40;;;;;;;11.55;2.20;;;15.50;79.10;;;;;;5027170;28;20180;-74
2022/04/25 06:13:07;;;;;;;5.55;1.73;;;15.60;78.80;;;;;;5028227;28;20188;-74
2022/04/25 06:15:33;;;;;;;3.10;1.80;;;15.70;78.60;;;;;;5024474;28;20208;-74
2022/04/25 06:17:59;;;;;;;6.07;1.88;;;15.70;78.50;;;;;;5026101;28;20200;-74
2022/04/25 06:20:26;;;;;;;5.60;2.08;;;15.80;78.90;;;;;;5028819;28;20950;-76
2022/04/25 06:22:52;;;;;;;1.60;1.48;;;15.90;79.00;;;;;;5031257;28;20175;-77
2022/04/25 06:25:18;;;;;;;10.27;2.13;;;15.90;79.00;;;;;;5027991;28;20607;-77
2022/04/25 06:27:44;;;;;;;9.95;2.28;;;16.00;78.40;;;;;;5025905;28;20195;-76
2022/04/25 06:30:11;;;;;;;5.70;1.98;;;16.10;78.40;;;;;;5029505;28;20227;-76
2022/04/25 06:32:37;;;;;;;9.15;1.95;;;16.10;78.50;;;;;;5032530;28;20574;-77
2022/04/25 06:35:03;;;;;;;7.15;1.70;;;16.20;78.30;;;;;;5030808;28;20184;-76
2022/04/25 06:37:28;;;;;;;8.85;1.70;;;16.20;78.10;;;;;;5030801;28;20184;-77
2022/04/25 06:39:54;;;;;;;3.08;1.33;;;16.30;78.00;;;;;;5027784;28;20226;-77
2022/04/25 06:42:21;;;;;;;1.95;1.52;;;16.40;77.80;;;;;;5030940;28;20291;-77
2022/04/25 06:44:48;;;;;;;2.67;1.77;;;16.50;77.40;;;;;;5026591;28;20700;-77
2022/04/25 06:47:13;;;;;;;2.97;1.38;;;16.50;77.50;;;;;;5026920;28;20184;-75
2022/04/25 06:49:39;;;;;;;3.97;2.08;;;16.60;77.10;;;;;;5029639;28;20195;-75
2022/04/25 06:52:07;;;;;;;7.35;1.63;;;16.70;77.10;;;;;;5027954;28;20188;-75
2022/04/25 06:54:35;;;;;;;6.82;1.90;;;16.80;76.90;;;;;;5027918;28;20179;-76
2022/04/25 06:57:01;;;;;;;7.45;1.80;;;16.90;76.80;;;;;;5029478;28;20659;-75
2022/04/25 06:59:27;;;;;;;15.85;2.15;;;17.00;76.30;;;;;;5029039;28;20243;-76
2022/04/25 07:01:53;;;;;;;8.63;2.05;;;17.10;76.20;;;;;;5027666;28;20184;-77
2022/04/25 07:04:19;;;;;;;3.08;1.90;;;17.10;76.20;;;;;;5029664;28;20191;-77
2022/04/25 07:06:48;;;;;;;1.98;1.30;;;17.20;76.10;;;;;;5029616;28;20180;-75
2022/04/25 07:09:14;;;;;;;7.70;1.80;;;17.30;75.80;;;;;;5026456;28;20188;-76
2022/04/25 07:11:44;;;;;;;3.70;1.23;;;17.40;74.60;;;;;;5059949;28;20714;-73
2022/04/25 07:14:12;;;;;;;5.25;1.63;;;17.50;75.00;;;;;;5029255;28;20189;-74
2022/04/25 07:16:40;;;;;;;10.75;2.50;;;17.50;75.50;;;;;;5026484;28;20273;-73
2022/04/25 07:19:06;;;;;;;2.97;0.98;;;17.60;75.40;;;;;;5028521;28;20856;-74
2022/04/25 07:29:47;;;;;;;6.40;2.08;;;18.00;74.50;;;;;;5024459;28;20276;-73
2022/04/25 07:32:14;;;;;;;2.92;1.75;;;18.10;74.00;;;;;;5030886;28;20179;-75
2022/04/25 07:34:41;;;;;;;3.92;1.75;;;18.20;73.90;;;;;;5026036;28;20189;-74
2022/04/25 07:37:07;;;;;;;6.68;1.70;;;18.30;73.20;;;;;;5026635;28;20223;-75
2022/04/25 07:39:33;;;;;;;6.32;2.10;;;18.40;73.20;;;;;;5028783;28;20184;-74
2022/04/25 07:41:59;;;;;;;3.83;1.40;;;;;;;;;;5029056;28;20239;-75
2022/04/25 07:44:26;;;;;;;1.48;0.95;;;18.80;71.50;;;;;;5030971;28;20263;-74
2022/04/25 07:46:53;;;;;;;16.92;2.38;;;18.80;72.40;;;;;;5031954;28;20184;-76
2022/04/25 07:49:18;;;;;;;5.32;1.63;;;18.80;72.10;;;;;;5035878;28;20216;-77
2022/04/25 07:51:44;;;;;;;8.10;1.27;;;18.90;71.50;;;;;;5029762;28;20219;-77
2022/04/25 07:54:11;;;;;;;5.60;1.08;;;19.00;71.00;;;;;;5033347;28;20188;-76
2022/04/25 07:56:38;;;;;;;8.45;1.10;;;19.10;63.30;;;;;;5034485;28;20963;-76
2022/04/25 07:59:05;;;;;;;9.27;1.20;;;19.10;62.70;;;;;;5028488;28;20194;-76
2022/04/25 08:01:33;;;;;;;6.85;1.08;;;19.20;65.20;;;;;;5024103;28;20200;-76
2022/04/25 08:03:59;;;;;;;5.60;1.42;;;19.30;61.50;;;;;;5027731;28;20180;-76
2022/04/25 08:06:25;;;;;;;12.85;1.83;;;19.40;62.40;;;;;;5032517;28;20641;-76
2022/04/25 08:08:52;;;;;;;6.03;1.25;;;19.50;61.40;;;;;;5030186;28;20317;-76
2022/04/25 08:11:20;;;;;;;3.53;1.10;;;19.60;59.30;;;;;;5028511;28;20176;-77
2022/04/25 08:19:16;;;;;;;10.05;1.30;;;20.00;58.40;;;;;;5027973;28;20686;-77
2022/04/25 08:21:44;;;;;;;7.68;1.45;;;20.20;59.60;;;;;;5027938;28;20270;-76
2022/04/25 08:24:11;;;;;;;9.20;1.50;;;20.30;59.40;;;;;;5031239;28;20190;-77
2022/04/25 08:26:38;;;;;;;6.78;0.98;;;20.50;58.10;;;;;;5031629;28;20283;-76
2022/04/25 08:29:04;;;;;;;12.82;1.25;;;20.60;57.60;;;;;;5031448;28;20601;-77
2022/04/25 08:31:31;;;;;;;5.43;1.25;;;20.70;57.20;;;;;;5031567;28;20326;-78
2022/04/25 08:33:57;;;;;;;8.05;1.02;;;20.70;57.50;;;;;;5037670;28;20184;-76
2022/04/25 08:36:24;;;;;;;13.40;1.67;;;20.90;58.20;;;;;;5032927;28;21069;-76
2022/04/25 08:38:51;;;;;;;11.25;1.70;;;21.00;57.10;;;;;;5026415;28;20196;-76
2022/04/25 08:41:23;;;;;;;10.07;1.63;;;21.10;56.30;;;;;;5036127;28;20191;-77
2022/04/25 08:43:51;;;;;;;2.17;1.10;;;21.20;56.40;;;;;;5031272;28;20187;-77
2022/04/25 08:46:18;;;;;;;7.40;1.08;;;21.30;56.70;;;;;;5025102;28;20199;-77
2022/04/25 08:48:44;;;;;;;7.03;1.38;;;21.40;56.50;;;;;;5033830;28;20180;-77
2022/04/25 08:51:11;;;;;;;6.88;1.23;;;21.50;55.20;;;;;;5026866;28;20748;-77
2022/04/25 08:53:39;;;;;;;11.35;1.10;;;21.50;55.10;;;;;;5032187;28;20195;-77
2022/04/25 08:56:07;;;;;;;4.07;1.13;;;21.60;54.90;;;;;;5030309;28;20204;-76
2022/04/25 08:58:36;;;;;;;14.90;1.20;;;21.60;53.70;;;;;;5032507;28;20168;-76
2022/04/25 09:01:02;;;;;;;3.92;1.20;;;21.70;54.20;;;;;;5027522;28;20184;-76
2022/04/25 09:03:28;;;;;;;7.30;1.30;;;21.80;54.20;;;;;;5038367;28;20180;-76
2022/04/25 09:05:55;;;;;;;4.15;1.17;;;21.80;53.40;;;;;;5024410;28;20176;-76
2022/04/25 09:08:21;;;;;;;8.07;1.00;;;21.80;54.00;;;;;;5035960;28;20192;-76
2022/04/25 09:10:50;;;;;;;4.25;1.02;;;22.00;54.50;;;;;;5039118;28;20267;-76
2022/04/25 09:13:16;;;;;;;11.35;1.30;;;22.10;54.20;;;;;;5035809;28;20271;-76
2022/04/25 09:15:42;;;;;;;11.43;1.02;;;22.30;54.40;;;;;;5030724;28;20291;-76
2022/04/25 09:18:10;;;;;;;9.95;1.15;;;22.50;53.00;;;;;;5028390;28;20294;-76
2022/04/25 09:20:36;;;;;;;5.60;1.02;;;22.60;53.10;;;;;;5034136;28;20605;-76
2022/04/25 09:23:18;;;;;;;5.30;0.93;;;22.90;52.60;;;;;;5028924;28;20176;-76
2022/04/25 09:26:15;;;;;;;6.75;1.00;;;23.20;52.80;;;;;;5028513;28;20215;-76
2022/04/25 09:28:46;;;;;;;8.55;1.02;;;23.40;49.90;;;;;;5026211;28;20246;-77
2022/04/25 09:31:18;;;;;;;6.75;1.05;;;23.80;50.10;;;;;;5025081;28;20272;-77
2022/04/25 09:33:45;;;;;;;7.28;1.52;;;24.00;49.70;;;;;;5035584;28;20622;-76
2022/04/25 09:36:12;;;;;;;3.78;0.63;;;24.30;49.30;;;;;;5027685;28;20630;-77
2022/04/25 09:38:42;;;;;;;10.18;1.00;;;24.50;48.50;;;;;;5038953;28;20175;-76
2022/04/25 09:41:10;;;;;;;7.18;1.00;;;24.80;46.10;;;;;;5034094;28;20195;-77
2022/04/25 09:43:38;;;;;;;4.97;0.63;;;25.10;47.70;;;;;;5028703;28;20278;-76
2022/04/25 09:46:15;;;;;;;10.55;0.90;;;25.40;47.30;;;;;;5028348;28;20192;-77
2022/04/25 09:49:01;;;;;;;9.68;0.93;;;25.80;46.50;;;;;;5030129;28;20183;-77
2022/04/25 09:51:27;;;;;;;12.05;0.90;;;26.20;46.40;;;;;;5032893;28;20188;-77
2022/04/25 09:53:54;;;;;;;4.50;0.60;;;26.50;43.20;;;;;;5034177;28;20187;-77
2022/04/25 09:56:22;;;;;;;6.10;0.82;;;26.60;43.60;;;;;;5037656;28;20214;-76
2022/04/25 09:59:07;;;;;;;9.48;0.73;;;27.00;43.70;;;;;;5035028;28;20262;-77
2022/04/25 10:01:39;;;;;;;4.13;0.82;;;27.40;43.50;;;;;;5028347;28;20561;-77
2022/04/25 10:04:26;;;;;;;10.38;1.42;;;27.70;42.80;;;;;;5032733;28;20234;-77
2022/04/25 10:06:52;;;;;;;3.55;0.88;;;27.90;42.00;;;;;;5030724;28;20188;-77
2022/04/25 10:09:20;;;;;;;6.43;0.95;;;28.10;42.00;;;;;;5036251;28;20615;-77
2022/04/25 10:11:48;;;;;;;8.65;0.77;;;28.30;43.00;;;;;;5032341;28;20634;-77
2022/04/25 10:14:15;;;;;;;10.00;1.00;;;28.30;41.80;;;;;;5032723;28;20183;-77
2022/04/25 10:16:42;;;;;;;7.68;0.90;;;28.40;41.60;;;;;;5030985;28;20218;-77
2022/04/25 10:19:08;;;;;;;5.65;0.73;;;28.30;41.10;;;;;;5029338;28;20180;-77
2022/04/25 10:21:36;;;;;;;4.05;0.98;;;28.30;41.50;;;;;;5034202;28;20178;-77
2022/04/25 10:24:02;;;;;;;6.53;0.77;;;28.40;41.20;;;;;;5033671;28;20176;-76
2022/04/25 10:26:30;;;;;;;8.27;1.35;;;28.70;41.80;;;;;;5030486;28;20694;-76
2022/04/25 10:28:59;;;;;;;9.10;1.35;;;28.80;41.20;;;;;;5031569;28;20241;-76
2022/04/25 10:31:27;;;;;;;11.55;1.25;;;28.90;40.80;;;;;;5032769;28;20259;-76
2022/04/25 10:33:59;;;;;;;6.15;1.00;;;29.10;40.70;;;;;;5031295;28;20179;-76
2022/04/25 10:36:37;;;;;;;6.82;0.73;;;29.30;40.30;;;;;;5034544;28;20606;-76
2022/04/25 10:39:14;;;;;;;3.90;0.73;;;29.50;40.20;;;;;;5031861;28;20194;-76
2022/04/25 10:44:27;;;;;;;9.05;0.80;;;29.80;39.50;;;;;;5033112;28;20611;-77
2022/04/25 10:47:05;;;;;;;3.25;0.80;;;29.90;39.00;;;;;;5028054;28;20192;-77
2022/04/25 10:49:34;;;;;;;6.10;0.70;;;29.90;39.00;;;;;;5033311;28;20549;-77
2022/04/25 10:52:05;;;;;;;13.85;0.90;;;29.70;40.20;;;;;;5027858;28;20281;-77
2022/04/25 10:54:48;;;;;;;7.35;0.98;;;29.80;40.30;;;;;;5024168;28;20861;-76
2022/04/25 10:57:15;;;;;;;5.32;0.88;;;29.80;39.60;;;;;;5025401;28;20759;-77
2022/04/25 10:59:41;;;;;;;10.07;0.93;;;29.90;41.50;;;;;;5038549;28;20183;-77
2022/04/25 11:02:23;;;;;;;7.18;1.02;;;30.00;39.70;;;;;;5036807;28;20678;-77
2022/04/25 11:05:11;;;;;;;4.10;0.70;;;30.20;38.30;;;;;;5034605;28;20266;-77
2022/04/25 11:07:40;;;;;;;1.58;0.43;;;30.30;38.30;;;;;;4982176;28;20225;-77
2022/04/25 11:10:06;;;;;;;6.05;0.47;;;30.50;38.30;;;;;;4982256;28;20654;-77
2022/04/25 11:12:57;;;;;;;7.13;0.80;;;30.70;37.70;;;;;;4982170;28;20190;-77
2022/04/25 11:15:49;;;;;;;3.08;0.45;;;30.90;37.90;;;;;;4981563;28;20797;-77
2022/04/25 11:21:04;;;;;;;8.32;0.68;;;31.10;36.90;;;;;;4982266;28;20802;-77
2022/04/25 11:23:34;;;;;;;2.75;0.70;;;30.90;37.60;;;;;;4983013;28;20551;-77
2022/04/25 11:26:01;;;;;;;3.50;0.55;;;30.90;38.50;;;;;;4981868;28;20272;-77
2022/04/25 11:28:28;;;;;;;3.83;0.63;;;31.20;37.30;;;;;;4982001;28;20248;-77
2022/04/25 11:31:15;;;;;;;8.38;0.75;;;31.40;36.80;;;;;;4981280;28;20571;-77
2022/04/25 11:33:45;;;;;;;0.57;0.50;;;31.20;40.10;;;;;;4981949;28;20205;-77
2022/04/25 11:36:13;;;;;;;2.67;0.55;;;31.40;39.10;;;;;;4982193;28;20603;-77
2022/04/25 11:41:33;;;;;;;3.47;0.60;;;32.20;36.70;;;;;;4982564;28;20180;-78
2022/04/25 11:43:59;;;;;;;3.65;0.60;;;32.20;36.50;;;;;;4990813;28;20194;-77
2022/04/25 11:46:31;;;;;;;3.25;0.43;;;32.50;36.60;;;;;;5027743;28;20333;-77
2022/04/25 11:48:57;;;;;;;5.68;0.45;;;32.70;37.90;;;;;;5037273;28;20183;-78
2022/04/25 11:51:29;;;;;;;2.17;0.30;;;33.40;34.70;;;;;;5032714;28;20180;-77
2022/04/25 11:53:59;;;;;;;4.32;0.50;;;33.40;34.70;;;;;;5036854;28;20530;-76
2022/04/25 11:56:29;;;;;;;3.97;0.43;;;33.40;34.70;;;;;;5027437;28;20693;-76
2022/04/25 11:58:57;;;;;;;3.08;0.70;;;33.30;35.00;;;;;;5033546;28;20179;-77
2022/04/25 12:01:33;;;;;;;7.25;0.68;;;33.10;34.00;;;;;;5033157;28;20218;-76
2022/04/25 12:04:28;;;;;;;5.05;0.60;;;33.10;35.80;;;;;;5039345;28;20170;-76
2022/04/25 12:07:00;;;;;;;5.47;0.35;;;33.40;34.50;;;;;;5025560;28;20191;-76
2022/04/25 12:15:35;;;;;;;5.45;0.70;;;34.40;33.60;;;;;;5034638;28;20684;-77
2022/04/25 12:18:20;;;;;;;2.97;0.50;;;34.60;35.30;;;;;;5026655;28;20198;-77
2022/04/25 12:21:08;;;;;;;3.20;0.30;;;34.80;34.50;;;;;;5041588;28;20174;-77
2022/04/25 12:23:45;;;;;;;0.47;0.47;;;34.80;32.40;;;;;;5030367;28;20190;-77
2022/04/25 12:26:19;;;;;;;1.63;0.25;;;34.90;32.50;;;;;;5032609;28;20171;-76
2022/04/25 12:29:00;;;;;;;3.75;0.30;;;35.10;34.60;;;;;;5032995;28;20194;-77
2022/04/25 12:31:30;;;;;;;0.85;0.30;;;35.10;32.40;;;;;;5031867;28;20171;-77
2022/04/25 12:34:03;;;;;;;1.08;0.30;;;35.10;33.20;;;;;;5032608;28;20191;-76
2022/04/25 12:36:29;;;;;;;0.80;0.30;;;35.20;33.10;;;;;;5036280;28;20231;-77
2022/04/25 12:39:00;;;;;;;3.13;0.30;;;35.00;34.10;;;;;;5035440;28;20694;-76
2022/04/25 12:41:31;;;;;;;2.90;0.30;;;35.10;32.90;;;;;;5035810;28;20175;-76
2022/04/25 12:44:10;;;;;;;4.85;0.47;;;35.30;34.80;;;;;;5034280;28;20347;-77
2022/04/25 12:46:42;;;;;;;2.33;0.40;;;35.50;33.50;;;;;;5028725;28;20588;-77
2022/04/25 12:49:12;;;;;;;7.97;0.38;;;35.80;32.10;;;;;;5032897;28;20212;-77
2022/04/25 12:51:58;;;;;;;0.17;0.15;;;35.80;33.00;;;;;;5033076;28;20179;-77
2022/04/25 12:54:31;;;;;;;3.10;0.73;;;35.40;33.20;;;;;;5031842;28;20207;-76
2022/04/25 12:57:21;;;;;;;1.77;0.50;;;35.20;32.30;;;;;;5032999;28;20206;-76
2022/04/25 12:59:52;;;;;;;4.68;0.40;;;34.80;33.20;;;;;;5034216;28;20180;-77
2022/04/25 13:02:22;;;;;;;5.22;0.55;;;34.60;33.50;;;;;;5029363;28;20246;-77
2022/04/25 13:04:52;;;;;;;3.72;0.40;;;34.00;33.20;;;;;;5029144;28;20258;-77
2022/04/25 13:07:22;;;;;;;5.95;0.65;;;33.50;34.20;;;;;;5032565;28;20277;-77
2022/04/25 13:09:48;;;;;;;1.63;0.35;;;33.00;34.80;;;;;;5038486;28;20163;-77
2022/04/25 13:12:16;;;;;;;1.65;0.50;;;33.00;37.20;;;;;;5036296;28;20565;-77
2022/04/25 13:14:42;;;;;;;0.52;0.50;;;33.30;35.40;;;;;;5029882;28;20678;-77
2022/04/25 13:17:09;;;;;;;3.92;0.40;;;33.70;35.90;;;;;;5038053;28;20360;-77
2022/04/25 13:19:35;;;;;;;5.72;0.52;;;34.20;34.90;;;;;;5034469;28;20187;-77
2022/04/25 13:22:01;;;;;;;3.65;0.20;;;34.50;33.30;;;;;;5033914;28;20179;-77
2022/04/25 13:24:27;;;;;;;1.17;0.47;;;34.10;33.00;;;;;;5028978;28;20182;-77
2022/04/25 13:26:54;;;;;;;0.60;0.30;;;33.20;33.90;;;;;;5022572;28;20598;-76
2022/04/25 13:29:20;;;;;;;4.57;0.43;;;33.20;35.50;;;;;;5027313;28;20313;-78
2022/04/25 13:31:46;;;;;;;2.58;0.47;;;33.30;35.90;;;;;;5056834;28;20314;-78